sensor_id;sensor_type;location;lat;lon;timestamp;temperature;humidity
10282;DHT22;5186;59.472;18.048;2023-04-24T00:00:19;7.90;99.90
10282;DHT22;5186;59.472;18.048;2023-04-24T00:02:47;7.90;99.90
10282;DHT22;5186;59.472;18.048;2023-04-24T00:05:14;7.80;99.90
10282;DHT22;5186;59.472;18.048;2023-04-24T00:07:41;7.70;99.90
10282;DHT22;5186;59.472;18.048;2023-04-24T00:10:07;7.60;99.90
10282;DHT22;5186;59.472;18.048;2023-04-24T00:12:33;7.60;99.90
10282;DHT22;5186;59.472;18.048;2023-04-24T00:14:59;7.60;99.90
10282;DHT22;5186;59.472;18.048;2023-04-24T00:17:25;7.60;99.90
10282;DHT22;5186;59.472;18.048;2023-04-24T00:19:50;7.60;99.90
10282;DHT22;5186;59.472;18.048;2023-04-24T00:22:17;7.60;99.90
10282;DHT22;5186;59.472;18.048;2023-04-24T00:24:43;7.60;99.90
10282;DHT22;5186;59.472;18.048;2023-04-24T00:27:08;7.50;99.90
10282;DHT22;5186;59.472;18.048;2023-04-24T00:29:34;7.60;99.90
10282;DHT22;5186;59.472;18.048;2023-04-24T00:32:00;7.60;99.90
10282;DHT22;5186;59.472;18.048;2023-04-24T00:34:26;7.60;99.90
10282;DHT22;5186;59.472;18.048;2023-04-24T00:36:51;7.40;99.90
10282;DHT22;5186;59.472;18.048;2023-04-24T00:39:21;7.50;99.90
10282;DHT22;5186;59.472;18.048;2023-04-24T00:41:47;7.50;99.90
10282;DHT22;5186;59.472;18.048;2023-04-24T00:44:14;7.50;99.90
10282;DHT22;5186;59.472;18.048;2023-04-24T00:46:40;7.50;99.90
10282;DHT22;5186;59.472;18.048;2023-04-24T00:49:06;7.50;99.90
10282;DHT22;5186;59.472;18.048;2023-04-24T00:51:32;7.40;99.90
10282;DHT22;5186;59.472;18.048;2023-04-24T00:53:58;7.30;99.90
10282;DHT22;5186;59.472;18.048;2023-04-24T00:56:25;7.20;99.90
10282;DHT22;5186;59.472;18.048;2023-04-24T00:58:51;7.30;99.90
10282;DHT22;5186;59.472;18.048;2023-04-24T01:01:20;7.40;99.90
10282;DHT22;5186;59.472;18.048;2023-04-24T01:03:47;7.30;99.90
10282;DHT22;5186;59.472;18.048;2023-04-24T01:06:14;7.40;99.90
10282;DHT22;5186;59.472;18.048;2023-04-24T01:08:41;7.40;99.90
10282;DHT22;5186;59.472;18.048;2023-04-24T01:11:07;7.30;99.90
10282;DHT22;5186;59.472;18.048;2023-04-24T01:13:33;7.30;99.90
10282;DHT22;5186;59.472;18.048;2023-04-24T01:15:59;7.30;99.90
10282;DHT22;5186;59.472;18.048;2023-04-24T01:18:26;7.30;99.90
10282;DHT22;5186;59.472;18.048;2023-04-24T01:20:57;7.10;99.90
10282;DHT22;5186;59.472;18.048;2023-04-24T01:23:23;7.20;99.90
10282;DHT22;5186;59.472;18.048;2023-04-24T01:25:49;7.10;99.90
10282;DHT22;5186;59.472;18.048;2023-04-24T01:28:16;7.10;99.90
10282;DHT22;5186;59.472;18.048;2023-04-24T01:30:41;7.10;99.90
10282;DHT22;5186;59.472;18.048;2023-04-24T01:33:07;7.00;99.90
10282;DHT22;5186;59.472;18.048;2023-04-24T01:35:36;7.00;99.90
10282;DHT22;5186;59.472;18.048;2023-04-24T01:38:02;7.00;99.90
10282;DHT22;5186;59.472;18.048;2023-04-24T01:40:28;7.10;99.90
10282;DHT22;5186;59.472;18.048;2023-04-24T01:42:54;7.10;99.90
10282;DHT22;5186;59.472;18.048;2023-04-24T01:45:20;7.00;99.90
10282;DHT22;5186;59.472;18.048;2023-04-24T01:47:47;7.00;99.90
10282;DHT22;5186;59.472;18.048;2023-04-24T01:50:15;7.00;99.90
10282;DHT22;5186;59.472;18.048;2023-04-24T01:52:40;6.90;99.90
10282;DHT22;5186;59.472;18.048;2023-04-24T01:55:06;6.90;99.90
10282;DHT22;5186;59.472;18.048;2023-04-24T01:57:33;6.90;99.90
10282;DHT22;5186;59.472;18.048;2023-04-24T01:59:58;6.80;99.90
10282;DHT22;5186;59.472;18.048;2023-04-24T02:02:24;6.80;99.90
10282;DHT22;5186;59.472;18.048;2023-04-24T02:04:53;6.90;99.90
10282;DHT22;5186;59.472;18.048;2023-04-24T02:07:18;6.90;99.90
10282;DHT22;5186;59.472;18.048;2023-04-24T02:09:44;6.80;99.90
10282;DHT22;5186;59.472;18.048;2023-04-24T02:12:10;6.80;99.90
10282;DHT22;5186;59.472;18.048;2023-04-24T02:14:35;6.70;99.90
10282;DHT22;5186;59.472;18.048;2023-04-24T02:17:01;6.70;99.90
10282;DHT22;5186;59.472;18.048;2023-04-24T02:19:26;6.70;99.90
10282;DHT22;5186;59.472;18.048;2023-04-24T02:21:52;6.70;99.90
10282;DHT22;5186;59.472;18.048;2023-04-24T02:24:18;6.80;99.90
10282;DHT22;5186;59.472;18.048;2023-04-24T02:26:46;6.80;99.90
10282;DHT22;5186;59.472;18.048;2023-04-24T02:29:11;6.80;99.90
10282;DHT22;5186;59.472;18.048;2023-04-24T02:31:37;6.80;99.90
10282;DHT22;5186;59.472;18.048;2023-04-24T02:34:03;6.70;99.90
10282;DHT22;5186;59.472;18.048;2023-04-24T02:36:28;6.70;99.90
10282;DHT22;5186;59.472;18.048;2023-04-24T02:38:55;6.60;99.90
10282;DHT22;5186;59.472;18.048;2023-04-24T02:41:20;6.70;99.90
10282;DHT22;5186;59.472;18.048;2023-04-24T02:43:46;6.60;99.90
10282;DHT22;5186;59.472;18.048;2023-04-24T02:46:11;6.50;99.90
10282;DHT22;5186;59.472;18.048;2023-04-24T02:48:37;6.40;99.90
10282;DHT22;5186;59.472;18.048;2023-04-24T02:51:03;6.40;99.90
10282;DHT22;5186;59.472;18.048;2023-04-24T02:53:28;6.30;99.90
10282;DHT22;5186;59.472;18.048;2023-04-24T02:55:56;6.30;99.90
10282;DHT22;5186;59.472;18.048;2023-04-24T02:58:22;6.30;99.90
10282;DHT22;5186;59.472;18.048;2023-04-24T03:00:47;6.30;99.90
10282;DHT22;5186;59.472;18.048;2023-04-24T03:03:13;6.40;99.90
10282;DHT22;5186;59.472;18.048;2023-04-24T03:05:40;6.30;99.90
10282;DHT22;5186;59.472;18.048;2023-04-24T03:08:06;6.30;99.90
10282;DHT22;5186;59.472;18.048;2023-04-24T03:10:31;6.30;99.90
10282;DHT22;5186;59.472;18.048;2023-04-24T03:12:57;6.30;99.90
10282;DHT22;5186;59.472;18.048;2023-04-24T03:15:23;6.40;99.90
10282;DHT22;5186;59.472;18.048;2023-04-24T03:17:49;6.40;99.90
10282;DHT22;5186;59.472;18.048;2023-04-24T03:20:14;6.40;99.90
10282;DHT22;5186;59.472;18.048;2023-04-24T03:22:40;6.40;99.90
10282;DHT22;5186;59.472;18.048;2023-04-24T03:25:06;6.40;99.90
10282;DHT22;5186;59.472;18.048;2023-04-24T03:27:34;6.40;99.90
10282;DHT22;5186;59.472;18.048;2023-04-24T03:30:00;6.40;99.90
10282;DHT22;5186;59.472;18.048;2023-04-24T03:32:26;6.40;99.90
10282;DHT22;5186;59.472;18.048;2023-04-24T03:34:51;6.40;99.90
10282;DHT22;5186;59.472;18.048;2023-04-24T03:37:17;6.40;99.90
10282;DHT22;5186;59.472;18.048;2023-04-24T03:39:43;6.40;99.90
10282;DHT22;5186;59.472;18.048;2023-04-24T03:42:08;6.30;99.90
10282;DHT22;5186;59.472;18.048;2023-04-24T03:44:35;6.20;99.90
10282;DHT22;5186;59.472;18.048;2023-04-24T03:47:01;6.20;99.90
10282;DHT22;5186;59.472;18.048;2023-04-24T03:49:27;6.20;99.90
10282;DHT22;5186;59.472;18.048;2023-04-24T03:51:52;6.20;99.90
10282;DHT22;5186;59.472;18.048;2023-04-24T03:54:18;6.20;99.90
10282;DHT22;5186;59.472;18.048;2023-04-24T03:56:44;6.10;99.90
10282;DHT22;5186;59.472;18.048;2023-04-24T03:59:10;6.10;99.90
10282;DHT22;5186;59.472;18.048;2023-04-24T04:01:36;6.10;99.90
10282;DHT22;5186;59.472;18.048;2023-04-24T04:04:06;6.10;99.90
10282;DHT22;5186;59.472;18.048;2023-04-24T04:06:32;6.10;99.90
10282;DHT22;5186;59.472;18.048;2023-04-24T04:08:58;6.10;99.90
10282;DHT22;5186;59.472;18.048;2023-04-24T04:11:24;6.10;99.90
10282;DHT22;5186;59.472;18.048;2023-04-24T04:13:50;6.10;99.90
10282;DHT22;5186;59.472;18.048;2023-04-24T04:16:15;6.10;99.90
10282;DHT22;5186;59.472;18.048;2023-04-24T04:18:42;6.00;99.90
10282;DHT22;5186;59.472;18.048;2023-04-24T04:21:08;6.00;99.90
10282;DHT22;5186;59.472;18.048;2023-04-24T04:23:34;6.00;99.90
10282;DHT22;5186;59.472;18.048;2023-04-24T04:26:00;6.00;99.90
10282;DHT22;5186;59.472;18.048;2023-04-24T04:28:29;6.00;99.90
10282;DHT22;5186;59.472;18.048;2023-04-24T04:30:56;6.00;99.90
10282;DHT22;5186;59.472;18.048;2023-04-24T04:33:26;6.00;99.90
10282;DHT22;5186;59.472;18.048;2023-04-24T04:35:52;6.00;99.90
10282;DHT22;5186;59.472;18.048;2023-04-24T04:38:21;6.00;99.90
10282;DHT22;5186;59.472;18.048;2023-04-24T04:40:49;6.00;99.90
10282;DHT22;5186;59.472;18.048;2023-04-24T04:43:15;6.00;99.90
10282;DHT22;5186;59.472;18.048;2023-04-24T04:45:41;6.10;99.90
10282;DHT22;5186;59.472;18.048;2023-04-24T04:48:08;6.10;99.90
10282;DHT22;5186;59.472;18.048;2023-04-24T04:50:35;6.10;99.90
10282;DHT22;5186;59.472;18.048;2023-04-24T04:53:01;6.10;99.90
10282;DHT22;5186;59.472;18.048;2023-04-24T04:55:26;6.10;99.90
10282;DHT22;5186;59.472;18.048;2023-04-24T04:57:52;6.10;99.90
10282;DHT22;5186;59.472;18.048;2023-04-24T05:00:18;6.10;99.90
10282;DHT22;5186;59.472;18.048;2023-04-24T05:02:44;6.10;99.90
10282;DHT22;5186;59.472;18.048;2023-04-24T05:05:10;6.10;99.90
10282;DHT22;5186;59.472;18.048;2023-04-24T05:07:36;6.10;99.90
10282;DHT22;5186;59.472;18.048;2023-04-24T05:10:02;6.10;99.90
10282;DHT22;5186;59.472;18.048;2023-04-24T05:12:27;6.10;99.90
10282;DHT22;5186;59.472;18.048;2023-04-24T05:14:53;6.10;99.90
10282;DHT22;5186;59.472;18.048;2023-04-24T05:17:18;6.10;99.90
10282;DHT22;5186;59.472;18.048;2023-04-24T05:19:44;6.10;99.90
10282;DHT22;5186;59.472;18.048;2023-04-24T05:22:10;6.10;99.90
10282;DHT22;5186;59.472;18.048;2023-04-24T05:24:37;6.10;99.90
10282;DHT22;5186;59.472;18.048;2023-04-24T05:27:03;6.10;99.90
10282;DHT22;5186;59.472;18.048;2023-04-24T05:29:32;6.10;99.90
10282;DHT22;5186;59.472;18.048;2023-04-24T05:31:59;6.00;99.90
10282;DHT22;5186;59.472;18.048;2023-04-24T05:34:25;6.10;99.90
10282;DHT22;5186;59.472;18.048;2023-04-24T05:36:51;6.10;99.90
10282;DHT22;5186;59.472;18.048;2023-04-24T05:39:17;6.10;99.90
10282;DHT22;5186;59.472;18.048;2023-04-24T05:41:45;6.00;99.90
10282;DHT22;5186;59.472;18.048;2023-04-24T05:44:10;6.00;99.90
10282;DHT22;5186;59.472;18.048;2023-04-24T05:46:36;6.00;99.90
10282;DHT22;5186;59.472;18.048;2023-04-24T05:49:02;5.90;99.90
10282;DHT22;5186;59.472;18.048;2023-04-24T05:51:28;5.90;99.90
10282;DHT22;5186;59.472;18.048;2023-04-24T05:53:54;5.80;99.90
10282;DHT22;5186;59.472;18.048;2023-04-24T05:56:19;5.90;99.90
10282;DHT22;5186;59.472;18.048;2023-04-24T05:58:46;5.90;99.90
10282;DHT22;5186;59.472;18.048;2023-04-24T06:01:12;5.90;99.90
10282;DHT22;5186;59.472;18.048;2023-04-24T06:03:38;5.90;99.90
10282;DHT22;5186;59.472;18.048;2023-04-24T06:06:06;5.90;99.90
10282;DHT22;5186;59.472;18.048;2023-04-24T06:08:32;5.90;99.90
10282;DHT22;5186;59.472;18.048;2023-04-24T06:10:58;5.80;99.90
10282;DHT22;5186;59.472;18.048;2023-04-24T06:13:24;5.80;99.90
10282;DHT22;5186;59.472;18.048;2023-04-24T06:15:50;5.80;99.90
10282;DHT22;5186;59.472;18.048;2023-04-24T06:18:16;5.80;99.90
10282;DHT22;5186;59.472;18.048;2023-04-24T06:20:46;5.80;99.90
10282;DHT22;5186;59.472;18.048;2023-04-24T06:23:12;5.80;99.90
10282;DHT22;5186;59.472;18.048;2023-04-24T06:25:38;5.80;99.90
10282;DHT22;5186;59.472;18.048;2023-04-24T06:28:03;5.80;99.90
10282;DHT22;5186;59.472;18.048;2023-04-24T06:30:29;5.80;99.90
10282;DHT22;5186;59.472;18.048;2023-04-24T06:32:55;5.90;99.90
10282;DHT22;5186;59.472;18.048;2023-04-24T06:35:20;5.90;99.90
10282;DHT22;5186;59.472;18.048;2023-04-24T06:37:46;5.90;99.90
10282;DHT22;5186;59.472;18.048;2023-04-24T06:40:12;5.90;99.90
10282;DHT22;5186;59.472;18.048;2023-04-24T06:42:37;5.90;99.90
10282;DHT22;5186;59.472;18.048;2023-04-24T06:45:04;5.90;99.90
10282;DHT22;5186;59.472;18.048;2023-04-24T06:47:30;5.90;99.90
10282;DHT22;5186;59.472;18.048;2023-04-24T06:49:56;6.00;99.90
10282;DHT22;5186;59.472;18.048;2023-04-24T06:52:22;5.90;99.90
10282;DHT22;5186;59.472;18.048;2023-04-24T06:54:48;5.90;99.90
10282;DHT22;5186;59.472;18.048;2023-04-24T06:57:13;5.90;99.90
10282;DHT22;5186;59.472;18.048;2023-04-24T06:59:39;5.90;99.90
10282;DHT22;5186;59.472;18.048;2023-04-24T07:02:05;5.90;99.90
10282;DHT22;5186;59.472;18.048;2023-04-24T07:04:31;5.90;99.90
10282;DHT22;5186;59.472;18.048;2023-04-24T07:06:56;5.90;99.90
10282;DHT22;5186;59.472;18.048;2023-04-24T07:09:26;6.00;99.90
10282;DHT22;5186;59.472;18.048;2023-04-24T07:11:52;6.00;99.90
10282;DHT22;5186;59.472;18.048;2023-04-24T07:14:19;6.00;99.90
10282;DHT22;5186;59.472;18.048;2023-04-24T07:16:45;6.00;99.90
10282;DHT22;5186;59.472;18.048;2023-04-24T07:19:11;6.00;99.90
10282;DHT22;5186;59.472;18.048;2023-04-24T07:21:37;6.10;99.90
10282;DHT22;5186;59.472;18.048;2023-04-24T07:24:03;6.10;99.90
10282;DHT22;5186;59.472;18.048;2023-04-24T07:26:30;6.10;99.90
10282;DHT22;5186;59.472;18.048;2023-04-24T07:28:56;6.10;99.90
10282;DHT22;5186;59.472;18.048;2023-04-24T07:31:21;6.10;99.90
10282;DHT22;5186;59.472;18.048;2023-04-24T07:33:47;6.20;99.90
10282;DHT22;5186;59.472;18.048;2023-04-24T07:36:13;6.20;99.90
10282;DHT22;5186;59.472;18.048;2023-04-24T07:38:42;6.20;99.90
10282;DHT22;5186;59.472;18.048;2023-04-24T07:41:08;6.30;99.90
10282;DHT22;5186;59.472;18.048;2023-04-24T07:43:34;6.30;99.90
10282;DHT22;5186;59.472;18.048;2023-04-24T07:46:00;6.30;99.90
10282;DHT22;5186;59.472;18.048;2023-04-24T07:48:26;6.30;99.90
10282;DHT22;5186;59.472;18.048;2023-04-24T07:50:52;6.20;99.90
10282;DHT22;5186;59.472;18.048;2023-04-24T07:53:18;6.20;99.90
10282;DHT22;5186;59.472;18.048;2023-04-24T07:55:43;6.30;99.90
10282;DHT22;5186;59.472;18.048;2023-04-24T07:58:09;6.30;99.90
10282;DHT22;5186;59.472;18.048;2023-04-24T08:00:35;6.30;99.90
10282;DHT22;5186;59.472;18.048;2023-04-24T08:03:01;6.40;99.90
10282;DHT22;5186;59.472;18.048;2023-04-24T08:05:26;6.40;99.90
10282;DHT22;5186;59.472;18.048;2023-04-24T08:07:54;6.40;99.90
10282;DHT22;5186;59.472;18.048;2023-04-24T08:10:20;6.50;99.90
10282;DHT22;5186;59.472;18.048;2023-04-24T08:12:46;6.50;99.90
10282;DHT22;5186;59.472;18.048;2023-04-24T08:15:12;6.60;99.90
10282;DHT22;5186;59.472;18.048;2023-04-24T08:17:37;6.50;99.90
10282;DHT22;5186;59.472;18.048;2023-04-24T08:20:04;6.60;99.90
10282;DHT22;5186;59.472;18.048;2023-04-24T08:22:31;6.60;99.90
10282;DHT22;5186;59.472;18.048;2023-04-24T08:24:58;6.70;99.90
10282;DHT22;5186;59.472;18.048;2023-04-24T08:27:24;6.70;99.90
10282;DHT22;5186;59.472;18.048;2023-04-24T08:29:50;6.80;99.90
10282;DHT22;5186;59.472;18.048;2023-04-24T08:32:16;6.80;99.90
10282;DHT22;5186;59.472;18.048;2023-04-24T08:34:42;6.80;99.90
10282;DHT22;5186;59.472;18.048;2023-04-24T08:37:07;6.80;99.90
10282;DHT22;5186;59.472;18.048;2023-04-24T08:39:33;6.90;99.90
10282;DHT22;5186;59.472;18.048;2023-04-24T08:41:59;6.90;99.90
10282;DHT22;5186;59.472;18.048;2023-04-24T08:44:32;6.90;99.90
10282;DHT22;5186;59.472;18.048;2023-04-24T08:46:58;6.90;99.90
10282;DHT22;5186;59.472;18.048;2023-04-24T08:49:24;7.00;99.90
10282;DHT22;5186;59.472;18.048;2023-04-24T08:51:52;7.00;99.90
10282;DHT22;5186;59.472;18.048;2023-04-24T08:54:18;7.10;99.90
10282;DHT22;5186;59.472;18.048;2023-04-24T08:56:45;7.10;99.90
10282;DHT22;5186;59.472;18.048;2023-04-24T08:59:11;7.10;99.90
10282;DHT22;5186;59.472;18.048;2023-04-24T09:01:38;7.10;99.90
10282;DHT22;5186;59.472;18.048;2023-04-24T09:04:07;7.20;99.90
10282;DHT22;5186;59.472;18.048;2023-04-24T09:06:35;7.20;99.90
10282;DHT22;5186;59.472;18.048;2023-04-24T09:09:01;7.30;99.90
10282;DHT22;5186;59.472;18.048;2023-04-24T09:11:29;7.30;99.90
10282;DHT22;5186;59.472;18.048;2023-04-24T09:13:56;7.30;99.90
10282;DHT22;5186;59.472;18.048;2023-04-24T09:16:22;7.40;99.90
10282;DHT22;5186;59.472;18.048;2023-04-24T09:18:50;7.50;99.90
10282;DHT22;5186;59.472;18.048;2023-04-24T09:21:15;7.50;99.90
10282;DHT22;5186;59.472;18.048;2023-04-24T09:23:41;7.50;99.90
10282;DHT22;5186;59.472;18.048;2023-04-24T09:26:09;7.60;99.90
10282;DHT22;5186;59.472;18.048;2023-04-24T09:28:38;7.60;99.90
10282;DHT22;5186;59.472;18.048;2023-04-24T09:31:13;7.60;99.90
10282;DHT22;5186;59.472;18.048;2023-04-24T09:33:40;7.70;99.90
10282;DHT22;5186;59.472;18.048;2023-04-24T09:36:06;7.80;99.90
10282;DHT22;5186;59.472;18.048;2023-04-24T09:38:36;7.80;99.90
10282;DHT22;5186;59.472;18.048;2023-04-24T09:41:13;7.90;99.90
10282;DHT22;5186;59.472;18.048;2023-04-24T09:43:39;8.00;99.90
10282;DHT22;5186;59.472;18.048;2023-04-24T09:46:07;8.00;99.90
10282;DHT22;5186;59.472;18.048;2023-04-24T09:48:35;8.00;99.90
10282;DHT22;5186;59.472;18.048;2023-04-24T09:51:03;8.00;99.90
10282;DHT22;5186;59.472;18.048;2023-04-24T09:53:30;8.10;99.90
10282;DHT22;5186;59.472;18.048;2023-04-24T09:55:56;8.10;99.90
10282;DHT22;5186;59.472;18.048;2023-04-24T09:58:25;8.20;99.90
10282;DHT22;5186;59.472;18.048;2023-04-24T10:00:55;8.20;99.90
10282;DHT22;5186;59.472;18.048;2023-04-24T10:03:24;8.20;99.90
10282;DHT22;5186;59.472;18.048;2023-04-24T10:05:51;8.30;99.90
10282;DHT22;5186;59.472;18.048;2023-04-24T10:08:20;8.30;99.90
10282;DHT22;5186;59.472;18.048;2023-04-24T10:10:46;8.30;99.90
10282;DHT22;5186;59.472;18.048;2023-04-24T10:13:13;8.30;99.90
10282;DHT22;5186;59.472;18.048;2023-04-24T10:15:41;8.30;99.90
10282;DHT22;5186;59.472;18.048;2023-04-24T10:18:08;8.30;99.90
10282;DHT22;5186;59.472;18.048;2023-04-24T10:20:36;8.30;99.90
10282;DHT22;5186;59.472;18.048;2023-04-24T10:23:02;8.30;99.90
10282;DHT22;5186;59.472;18.048;2023-04-24T10:25:33;8.30;99.90
10282;DHT22;5186;59.472;18.048;2023-04-24T10:28:00;8.30;99.90
10282;DHT22;5186;59.472;18.048;2023-04-24T10:30:29;8.40;99.90
10282;DHT22;5186;59.472;18.048;2023-04-24T10:32:55;8.30;99.90
10282;DHT22;5186;59.472;18.048;2023-04-24T10:35:21;8.30;99.90
10282;DHT22;5186;59.472;18.048;2023-04-24T10:37:55;8.30;99.90
10282;DHT22;5186;59.472;18.048;2023-04-24T10:40:27;8.40;99.90
10282;DHT22;5186;59.472;18.048;2023-04-24T10:42:56;8.30;99.90
10282;DHT22;5186;59.472;18.048;2023-04-24T10:45:23;8.30;99.90
10282;DHT22;5186;59.472;18.048;2023-04-24T10:48:06;8.40;99.90
10282;DHT22;5186;59.472;18.048;2023-04-24T10:50:45;8.40;99.90
10282;DHT22;5186;59.472;18.048;2023-04-24T10:53:19;8.40;99.90
10282;DHT22;5186;59.472;18.048;2023-04-24T10:56:08;8.30;99.90
10282;DHT22;5186;59.472;18.048;2023-04-24T10:58:49;8.40;99.90
10282;DHT22;5186;59.472;18.048;2023-04-24T11:01:31;8.40;99.90
10282;DHT22;5186;59.472;18.048;2023-04-24T11:04:02;8.40;99.90
10282;DHT22;5186;59.472;18.048;2023-04-24T11:06:35;8.40;99.90
10282;DHT22;5186;59.472;18.048;2023-04-24T11:09:08;8.40;99.90
10282;DHT22;5186;59.472;18.048;2023-04-24T11:11:36;8.40;99.90
10282;DHT22;5186;59.472;18.048;2023-04-24T11:14:08;8.50;99.90
10282;DHT22;5186;59.472;18.048;2023-04-24T11:16:44;8.50;99.90
10282;DHT22;5186;59.472;18.048;2023-04-24T11:19:21;8.50;99.90
10282;DHT22;5186;59.472;18.048;2023-04-24T11:21:58;8.50;99.90
10282;DHT22;5186;59.472;18.048;2023-04-24T11:32:28;8.50;99.90
10282;DHT22;5186;59.472;18.048;2023-04-24T11:37:29;8.50;99.90
10282;DHT22;5186;59.472;18.048;2023-04-24T11:39:57;8.50;99.90
10282;DHT22;5186;59.472;18.048;2023-04-24T11:42:23;8.60;99.90
10282;DHT22;5186;59.472;18.048;2023-04-24T11:44:50;8.60;99.90
10282;DHT22;5186;59.472;18.048;2023-04-24T11:47:17;8.60;99.90
10282;DHT22;5186;59.472;18.048;2023-04-24T11:49:42;8.70;99.90
10282;DHT22;5186;59.472;18.048;2023-04-24T11:52:08;8.70;99.90
10282;DHT22;5186;59.472;18.048;2023-04-24T11:54:34;8.70;99.90
10282;DHT22;5186;59.472;18.048;2023-04-24T11:57:04;8.70;99.90
10282;DHT22;5186;59.472;18.048;2023-04-24T11:59:30;8.70;99.90
10282;DHT22;5186;59.472;18.048;2023-04-24T12:02:00;8.60;99.90
10282;DHT22;5186;59.472;18.048;2023-04-24T12:04:25;8.60;99.90
10282;DHT22;5186;59.472;18.048;2023-04-24T12:07:04;8.70;99.90
10282;DHT22;5186;59.472;18.048;2023-04-24T12:10:00;8.70;99.90
10282;DHT22;5186;59.472;18.048;2023-04-24T12:12:27;8.70;99.90
10282;DHT22;5186;59.472;18.048;2023-04-24T12:14:55;8.60;99.90
10282;DHT22;5186;59.472;18.048;2023-04-24T12:17:30;8.60;99.90
10282;DHT22;5186;59.472;18.048;2023-04-24T12:20:08;8.60;99.90
10282;DHT22;5186;59.472;18.048;2023-04-24T12:22:54;8.60;99.90
10282;DHT22;5186;59.472;18.048;2023-04-24T12:25:21;8.70;99.90
10282;DHT22;5186;59.472;18.048;2023-04-24T12:27:54;8.60;99.90
10282;DHT22;5186;59.472;18.048;2023-04-24T12:30:21;8.60;99.90
10282;DHT22;5186;59.472;18.048;2023-04-24T12:32:48;8.60;99.90
10282;DHT22;5186;59.472;18.048;2023-04-24T12:35:19;8.60;99.90
10282;DHT22;5186;59.472;18.048;2023-04-24T12:37:46;8.60;99.90
10282;DHT22;5186;59.472;18.048;2023-04-24T12:40:12;8.50;99.90
10282;DHT22;5186;59.472;18.048;2023-04-24T12:42:46;8.50;99.90
10282;DHT22;5186;59.472;18.048;2023-04-24T12:45:13;8.50;99.90
10282;DHT22;5186;59.472;18.048;2023-04-24T12:47:39;8.50;99.90
10282;DHT22;5186;59.472;18.048;2023-04-24T12:50:09;8.60;99.90
10282;DHT22;5186;59.472;18.048;2023-04-24T12:52:36;8.50;99.90
10282;DHT22;5186;59.472;18.048;2023-04-24T12:55:02;8.50;99.90
10282;DHT22;5186;59.472;18.048;2023-04-24T12:57:29;8.50;99.90
10282;DHT22;5186;59.472;18.048;2023-04-24T12:59:58;8.60;99.90
10282;DHT22;5186;59.472;18.048;2023-04-24T13:02:25;8.60;99.90
10282;DHT22;5186;59.472;18.048;2023-04-24T13:04:52;8.60;99.90
10282;DHT22;5186;59.472;18.048;2023-04-24T13:07:17;8.50;99.90
10282;DHT22;5186;59.472;18.048;2023-04-24T13:09:44;8.50;99.90
10282;DHT22;5186;59.472;18.048;2023-04-24T13:12:10;8.50;99.90
10282;DHT22;5186;59.472;18.048;2023-04-24T13:14:37;8.50;99.90
10282;DHT22;5186;59.472;18.048;2023-04-24T13:17:03;8.50;99.90
10282;DHT22;5186;59.472;18.048;2023-04-24T13:19:29;8.50;99.90
10282;DHT22;5186;59.472;18.048;2023-04-24T13:21:56;8.50;99.90
10282;DHT22;5186;59.472;18.048;2023-04-24T13:24:25;8.50;99.90
10282;DHT22;5186;59.472;18.048;2023-04-24T13:26:52;8.50;99.90
10282;DHT22;5186;59.472;18.048;2023-04-24T13:29:18;8.50;99.90
10282;DHT22;5186;59.472;18.048;2023-04-24T13:31:43;8.40;99.90
10282;DHT22;5186;59.472;18.048;2023-04-24T13:34:09;8.40;99.90
10282;DHT22;5186;59.472;18.048;2023-04-24T13:36:35;8.40;99.90
10282;DHT22;5186;59.472;18.048;2023-04-24T13:39:02;8.40;99.90
10282;DHT22;5186;59.472;18.048;2023-04-24T13:41:29;8.30;99.90
10282;DHT22;5186;59.472;18.048;2023-04-24T13:43:55;8.30;99.90
10282;DHT22;5186;59.472;18.048;2023-04-24T13:46:21;8.30;99.90
10282;DHT22;5186;59.472;18.048;2023-04-24T13:48:47;8.40;99.90
10282;DHT22;5186;59.472;18.048;2023-04-24T13:51:12;8.40;99.90
10282;DHT22;5186;59.472;18.048;2023-04-24T13:53:38;8.30;99.90
10282;DHT22;5186;59.472;18.048;2023-04-24T13:56:04;8.30;99.90
10282;DHT22;5186;59.472;18.048;2023-04-24T13:58:31;8.30;99.90
10282;DHT22;5186;59.472;18.048;2023-04-24T14:00:57;8.30;99.90
10282;DHT22;5186;59.472;18.048;2023-04-24T14:03:23;8.30;99.90
10282;DHT22;5186;59.472;18.048;2023-04-24T14:05:49;8.30;99.90
10282;DHT22;5186;59.472;18.048;2023-04-24T14:08:14;8.40;99.90
10282;DHT22;5186;59.472;18.048;2023-04-24T14:10:40;8.30;99.90
10282;DHT22;5186;59.472;18.048;2023-04-24T14:13:05;8.30;99.90
10282;DHT22;5186;59.472;18.048;2023-04-24T14:15:31;8.30;99.90
10282;DHT22;5186;59.472;18.048;2023-04-24T14:17:57;8.20;99.90
10282;DHT22;5186;59.472;18.048;2023-04-24T14:20:23;8.20;99.90
10282;DHT22;5186;59.472;18.048;2023-04-24T14:22:49;8.10;99.90
10282;DHT22;5186;59.472;18.048;2023-04-24T14:25:14;8.10;99.90
10282;DHT22;5186;59.472;18.048;2023-04-24T14:27:40;8.10;99.90
10282;DHT22;5186;59.472;18.048;2023-04-24T14:30:07;8.10;99.90
10282;DHT22;5186;59.472;18.048;2023-04-24T14:32:32;8.10;99.90
10282;DHT22;5186;59.472;18.048;2023-04-24T14:35:01;8.00;99.90
10282;DHT22;5186;59.472;18.048;2023-04-24T14:37:27;7.90;99.90
10282;DHT22;5186;59.472;18.048;2023-04-24T14:39:52;7.90;99.90
10282;DHT22;5186;59.472;18.048;2023-04-24T14:42:18;7.90;99.90
10282;DHT22;5186;59.472;18.048;2023-04-24T14:44:43;7.90;99.90
10282;DHT22;5186;59.472;18.048;2023-04-24T14:47:09;7.90;99.90
10282;DHT22;5186;59.472;18.048;2023-04-24T14:49:35;7.90;99.90
10282;DHT22;5186;59.472;18.048;2023-04-24T14:52:00;7.90;99.90
10282;DHT22;5186;59.472;18.048;2023-04-24T14:54:28;7.90;99.90
10282;DHT22;5186;59.472;18.048;2023-04-24T14:56:56;7.90;99.90
10282;DHT22;5186;59.472;18.048;2023-04-24T14:59:24;7.90;99.90
10282;DHT22;5186;59.472;18.048;2023-04-24T15:01:50;7.90;99.90
10282;DHT22;5186;59.472;18.048;2023-04-24T15:04:18;7.90;99.90
10282;DHT22;5186;59.472;18.048;2023-04-24T15:06:43;7.90;99.90
10282;DHT22;5186;59.472;18.048;2023-04-24T15:09:09;7.90;99.90
10282;DHT22;5186;59.472;18.048;2023-04-24T15:11:35;7.90;99.90
10282;DHT22;5186;59.472;18.048;2023-04-24T15:14:01;7.80;99.90
10282;DHT22;5186;59.472;18.048;2023-04-24T15:16:27;7.70;99.90
10282;DHT22;5186;59.472;18.048;2023-04-24T15:18:52;7.70;99.90
10282;DHT22;5186;59.472;18.048;2023-04-24T15:21:18;7.70;99.90
10282;DHT22;5186;59.472;18.048;2023-04-24T15:23:43;7.60;99.90
10282;DHT22;5186;59.472;18.048;2023-04-24T15:26:09;7.60;99.90
10282;DHT22;5186;59.472;18.048;2023-04-24T15:28:35;7.50;99.90
10282;DHT22;5186;59.472;18.048;2023-04-24T15:31:00;7.50;99.90
10282;DHT22;5186;59.472;18.048;2023-04-24T15:33:26;7.50;99.90
10282;DHT22;5186;59.472;18.048;2023-04-24T15:35:51;7.50;99.90
10282;DHT22;5186;59.472;18.048;2023-04-24T15:38:17;7.40;99.90
10282;DHT22;5186;59.472;18.048;2023-04-24T15:40:43;7.40;99.90
10282;DHT22;5186;59.472;18.048;2023-04-24T15:43:09;7.40;99.90
10282;DHT22;5186;59.472;18.048;2023-04-24T15:45:36;7.40;99.90
10282;DHT22;5186;59.472;18.048;2023-04-24T15:48:01;7.40;99.90
10282;DHT22;5186;59.472;18.048;2023-04-24T15:50:27;7.40;99.90
10282;DHT22;5186;59.472;18.048;2023-04-24T15:52:53;7.50;99.90